Accueil
METAR-TAF:

METAR-TAF

Aéroports :

Laupheim, Allemagne

latitude: 48-13N, longitude: 009-55E, altitude: 538 m

Observation

Le bulletin a été fait il y a 40 minutes, à 18:20 UTC
Vent 3 kt de est
Température 3°C
Humidité 87%
Pression 1012 hPa
Visibilité: 5000 m
Ciel couvert à une hauteur de 800 ft
brume

METAR: ETHL 201820Z 09003KT 5000 BR OVC008 03/01 Q1012 GRN

Heure: 20:00 (19:00 UTC)

Prévision

Le bulletin a été fait il y a 3 heures et 47 minutes, à 15:13 UTC
Prévision valable du 20 à 16 UTC au 20 à 24 UTC
Vent 5 kt de est/nord-est
Visibilité: 6000 m
Evoluant progressivement
du 20 à 20 UTC au 20 à 22 UTC
Vent 3 kt de direction variable
Visibilité: 1630 m
Nuages fragmentés à une hauteur de 500 ft
Ciel couvert à une hauteur de 1200 ft
brume

TAF: ETHL 201513Z 2016/2024 06005KT 6000 NSW OVC09 BECMG 2020/2022 VRB03KT 3000 BR BKN005 OVC012 CANCEL 1630

Observations et prévisions météorologiques de plus de 4000 aéroports (messages METAR et TAF).

Les stations disponibles sont représentées par des disques jaunes et rouges sur la carte.

Passer la souris dessus pour voir le nom de la station.

Cliquer dessus pour voir les observations et prévisions météorologiques.

Pour changer de carte: cliquez sur les boutons verts avec une croix noire pour zoomer, sur le bouton vert avec un tiret pour effectuer un zoom arrière, ou sur les flèches vertes pour les cartes adjacentes.


METAR-TAF: